Gopher, South Dakota
Current Conditions -  °F | °C
As of 8:52 AM on Tuesday 21 Oct 2014 (Local Time) from KMBG Reporting Station
Clear Clear  
Wind Chill: 54°   Ceiling: Unl
Heat Index: 54°   Visibility: 10mi
Dew Point: 41°   Wind: 14mph
Humidity: 62%   Direction: 140°SE
Pressure: 29.81"   Gusts: NA
Location:  45.5528°N, 100.336°W
Report Text: KMBG 211352Z AUTO 14012KT 10SM CLR 12/05 A2981 RMK AO2 SLP095 T01220050
Loading
Personal Weather Stations






























Interactive Weather Map
Tropical Storm Tracking
New forecast layout! Learn more

10-Day Weather Forecast

Advertisements
Track Severe Weather on mobile